This is the latest recevied weather packets stored in our database for station/object LRTM. If no packets are shown the sender has not sent any weather packets the latest 10 day(s).
| Time | Temp. | Humidity | Pressure | Rain* | Wind** | Luminosity | Snow |
|---|---|---|---|---|---|---|---|
| 1777277907 | 10° C | 37% | 1024 hPa | - | - | - | - |
| 1777277007 | 10° C | 37% | 1024 hPa | - | - | - | - |
| 1777276106 | 8.89° C | 50% | 1024 hPa | - | - | - | - |
| 1777275207 | 8.89° C | 50% | 1024 hPa | - | - | - | - |
| 1777274307 | 8.89° C | 46% | 1024 hPa | - | - | - | - |
| 1777273407 | 8.89° C | 46% | 1024 hPa | - | - | - | - |
| 1777272506 | 7.22° C | 49% | 1024 hPa | - | - | - | - |
| 1777271607 | 7.22° C | 49% | 1024 hPa | - | - | - | - |
| 1777270707 | 6.11° C | 57% | 1024 hPa | - | - | - | - |
| 1777269807 | 6.11° C | 57% | 1024 hPa | - | - | - | - |
| 1777268903 | 5° C | 61% | 1024 hPa | - | - | - | - |
| 1777268007 | 5° C | 61% | 1024 hPa | - | - | - | - |
| 1777267106 | 2.78° C | 65% | 1024 hPa | - | - | - | - |
| 1777266229 | 2.78° C | 65% | 1024 hPa | - | - | - | - |
| 1777265307 | 1.11° C | 81% | 1024 hPa | - | - | - | - |
| 1777264484 | 1.11° C | 81% | 1024 hPa | - | - | - | - |
| 1777263506 | 0° C | 75% | 1024 hPa | - | - | - | - |
| 1777262606 | 0° C | 75% | 1024 hPa | - | - | - | - |
| 1777261706 | 0° C | 75% | 1024 hPa | - | - | - | - |
| 1777260844 | 0° C | 75% | 1024 hPa | - | - | - | - |
| 1777259907 | 0° C | 75% | 1023 hPa | - | - | - | - |
| 1777259006 | 0° C | 75% | 1023 hPa | - | - | - | - |
| 1777258107 | 0° C | 75% | 1023 hPa | - | - | - | - |
| 1777257207 | 0° C | 75% | 1023 hPa | - | - | - | - |
| 1777256306 | 1.11° C | 70% | 1023 hPa | - | - | - | - |
* Rain since midnight (hover to see other rain measurements)
** Current wind speed in m/s (hover to see current wind gust speed)